createdAt,value
2023-11-07T00:01:55.194Z,20.52
2023-11-07T00:04:25.208Z,20.48
2023-11-07T00:06:56.230Z,20.44
2023-11-07T00:09:26.230Z,20.35
2023-11-07T00:11:56.202Z,20.33
2023-11-07T00:14:27.123Z,20.33
2023-11-07T00:16:57.495Z,20.23
2023-11-07T00:19:27.780Z,20.17
2023-11-07T00:21:59.793Z,20.16
2023-11-07T00:24:29.472Z,20.18
2023-11-07T00:27:02.051Z,20.07
2023-11-07T00:29:32.543Z,20.03
2023-11-07T00:32:02.398Z,20.05
2023-11-07T00:34:32.416Z,19.97
2023-11-07T00:37:02.410Z,19.92
2023-11-07T00:39:33.131Z,19.93
2023-11-07T00:42:03.351Z,19.86
2023-11-07T00:44:34.373Z,19.77
2023-11-07T00:47:05.041Z,19.75
2023-11-07T00:49:35.595Z,19.75
2023-11-07T00:52:05.568Z,19.72
2023-11-07T00:54:35.977Z,19.66
2023-11-07T00:57:06.161Z,19.62
2023-11-07T00:59:36.267Z,19.56
2023-11-07T01:02:06.242Z,19.56
2023-11-07T01:04:36.157Z,19.56
2023-11-07T01:07:06.252Z,19.51
2023-11-07T01:09:36.832Z,19.46
2023-11-07T01:12:08.003Z,19.49
2023-11-07T01:14:40.467Z,19.42
2023-11-07T01:17:11.772Z,19.41
2023-11-07T01:19:42.453Z,19.35
2023-11-07T01:22:12.562Z,19.35
2023-11-07T01:24:42.870Z,19.36
2023-11-07T01:27:14.303Z,19.36
2023-11-07T01:29:44.806Z,19.29
2023-11-07T01:32:14.797Z,19.29
2023-11-07T01:34:45.231Z,19.27
2023-11-07T01:37:15.284Z,19.21
2023-11-07T01:39:48.432Z,19.17
2023-11-07T01:42:18.698Z,19.22
2023-11-07T01:44:53.392Z,19.18
2023-11-07T01:47:27.243Z,19.14
2023-11-07T01:49:58.520Z,19.07
2023-11-07T01:52:28.895Z,19.04
2023-11-07T01:55:01.454Z,19.07
2023-11-07T01:57:31.805Z,19.06
2023-11-07T02:00:03.449Z,19.00
2023-11-07T02:02:43.383Z,18.93
2023-11-07T02:05:14.206Z,18.88
2023-11-07T02:07:44.678Z,18.88
2023-11-07T02:10:14.798Z,19.03
2023-11-07T02:12:44.863Z,18.97
2023-11-07T02:15:22.894Z,18.86
2023-11-07T02:17:53.755Z,18.88
2023-11-07T02:20:25.470Z,18.81
2023-11-07T02:23:02.650Z,18.77
2023-11-07T02:25:34.058Z,18.73
2023-11-07T02:28:04.767Z,18.66
2023-11-07T02:30:35.060Z,18.60
2023-11-07T02:33:08.232Z,18.57
2023-11-07T02:35:39.981Z,18.56
2023-11-07T02:38:13.147Z,18.49
2023-11-07T02:40:43.333Z,18.42
2023-11-07T02:43:14.547Z,18.40
2023-11-07T02:45:44.969Z,18.39
2023-11-07T02:48:15.906Z,18.35
2023-11-07T02:50:47.029Z,18.33
2023-11-07T02:53:17.679Z,18.25
2023-11-07T02:55:49.062Z,18.25
2023-11-07T02:58:19.819Z,18.16
2023-11-07T03:00:49.956Z,18.16
2023-11-07T03:03:20.098Z,18.16
2023-11-07T03:05:50.436Z,18.12
2023-11-07T03:08:20.266Z,18.06
2023-11-07T03:10:50.174Z,18.08
2023-11-07T03:13:22.392Z,18.05
2023-11-07T03:15:53.101Z,18.02
2023-11-07T03:18:24.512Z,18.05
2023-11-07T03:20:54.845Z,17.95
2023-11-07T03:23:24.745Z,17.88
2023-11-07T03:25:55.205Z,17.88
2023-11-07T03:28:27.841Z,17.85
2023-11-07T03:30:58.393Z,17.85
2023-11-07T03:33:28.370Z,17.82
2023-11-07T03:35:59.457Z,17.82
2023-11-07T03:38:30.338Z,17.75
2023-11-07T03:41:00.659Z,17.73
2023-11-07T03:43:31.136Z,17.74
2023-11-07T03:46:01.134Z,17.67
2023-11-07T03:48:31.260Z,17.67
2023-11-07T03:51:01.792Z,17.58
2023-11-07T03:53:31.848Z,17.54
2023-11-07T03:56:02.065Z,17.47
2023-11-07T03:58:33.789Z,17.47
2023-11-07T04:01:05.300Z,17.43
2023-11-07T04:03:35.944Z,17.43
2023-11-07T04:06:06.594Z,17.44
2023-11-07T04:08:38.477Z,17.43
2023-11-07T04:11:08.676Z,17.40
2023-11-07T04:13:38.855Z,17.36
2023-11-07T04:16:10.646Z,17.36
2023-11-07T04:18:42.160Z,17.39
2023-11-07T04:21:12.546Z,17.40
2023-11-07T04:23:42.764Z,17.40
2023-11-07T04:26:13.799Z,17.41
2023-11-07T04:28:43.829Z,17.36
2023-11-07T04:31:14.921Z,17.29
2023-11-07T04:33:45.424Z,17.33
2023-11-07T04:36:18.774Z,17.29
2023-11-07T04:38:48.985Z,17.36
2023-11-07T04:41:18.990Z,17.36
2023-11-07T04:43:48.794Z,17.33
2023-11-07T04:46:19.669Z,17.26
2023-11-07T04:48:49.646Z,17.19
2023-11-07T04:51:20.001Z,17.18
2023-11-07T04:53:50.452Z,17.13
2023-11-07T04:56:20.769Z,17.09
2023-11-07T04:58:57.293Z,17.10
2023-11-07T05:01:29.096Z,17.05
2023-11-07T05:04:00.367Z,17.00
2023-11-07T05:06:31.012Z,16.98
2023-11-07T05:09:02.851Z,16.89
2023-11-07T05:11:33.068Z,16.88
2023-11-07T05:14:03.261Z,16.88
2023-11-07T05:16:33.780Z,16.83
2023-11-07T05:19:04.126Z,16.79
2023-11-07T05:21:34.110Z,16.73
2023-11-07T05:24:07.649Z,16.72
2023-11-07T05:26:39.359Z,16.69
2023-11-07T05:29:10.067Z,16.61
2023-11-07T05:31:40.209Z,16.59
2023-11-07T05:34:10.128Z,16.65
2023-11-07T05:36:40.301Z,16.59
2023-11-07T05:39:10.383Z,16.61
2023-11-07T05:41:40.865Z,16.64
2023-11-07T05:44:11.077Z,16.62
2023-11-07T05:46:42.428Z,16.62
2023-11-07T05:49:13.136Z,16.54
2023-11-07T05:51:44.979Z,16.55
2023-11-07T05:54:16.280Z,16.57
2023-11-07T05:56:47.866Z,16.57
2023-11-07T05:59:18.524Z,16.58
2023-11-07T06:01:49.119Z,16.57
2023-11-07T06:04:33.688Z,16.52
2023-11-07T06:07:04.190Z,16.45
2023-11-07T06:09:34.259Z,16.45
2023-11-07T06:12:04.487Z,16.41
2023-11-07T06:14:34.760Z,16.42
2023-11-07T06:17:04.840Z,16.32
2023-11-07T06:19:35.942Z,16.24
2023-11-07T06:22:06.082Z,16.22
2023-11-07T06:24:35.954Z,16.22
2023-11-07T06:27:06.599Z,16.18
2023-11-07T06:29:36.943Z,16.22
2023-11-07T06:32:07.247Z,16.22
2023-11-07T06:34:37.078Z,16.17
2023-11-07T06:37:07.268Z,16.14
2023-11-07T06:39:37.100Z,16.14
2023-11-07T06:42:07.446Z,16.13
2023-11-07T06:44:37.958Z,16.07
2023-11-07T06:47:08.386Z,16.00
2023-11-07T06:49:38.216Z,15.96
2023-11-07T06:52:08.265Z,15.91
2023-11-07T06:54:38.077Z,15.86
2023-11-07T06:57:10.588Z,15.93
2023-11-07T06:59:41.202Z,15.93
2023-11-07T07:02:11.572Z,15.94
2023-11-07T07:04:41.494Z,15.90
2023-11-07T07:07:11.327Z,15.94
2023-11-07T07:09:41.969Z,15.85
2023-11-07T07:12:12.148Z,15.87
2023-11-07T07:14:42.373Z,15.85
2023-11-07T07:17:12.812Z,15.78
2023-11-07T07:19:47.208Z,15.82
2023-11-07T07:22:17.404Z,15.78
2023-11-07T07:24:49.420Z,15.78
2023-11-07T07:27:21.706Z,15.70
2023-11-07T07:29:52.123Z,15.70
2023-11-07T07:32:23.779Z,15.66
2023-11-07T07:34:54.686Z,15.62
2023-11-07T07:37:25.489Z,15.69
2023-11-07T07:39:55.679Z,15.58
2023-11-07T07:42:28.239Z,15.59
2023-11-07T07:44:58.688Z,15.55
2023-11-07T07:47:29.753Z,15.53
2023-11-07T07:49:59.621Z,15.62
2023-11-07T07:52:34.264Z,15.49
2023-11-07T07:55:10.572Z,15.45
2023-11-07T07:57:46.803Z,15.46
2023-11-07T08:00:20.235Z,15.43
2023-11-07T08:02:50.312Z,15.48
2023-11-07T08:05:21.013Z,15.43
2023-11-07T08:07:51.215Z,15.36
2023-11-07T08:10:24.674Z,15.24
2023-11-07T08:12:58.781Z,15.28
2023-11-07T08:15:31.425Z,15.32
2023-11-07T08:18:03.142Z,15.32
2023-11-07T08:20:35.428Z,15.31
2023-11-07T08:23:08.428Z,15.28
2023-11-07T08:25:38.794Z,15.21
2023-11-07T08:28:11.864Z,15.15
2023-11-07T08:30:46.086Z,15.21
2023-11-07T08:33:16.478Z,15.25
2023-11-07T08:35:46.737Z,15.21
2023-11-07T08:38:16.645Z,15.18
2023-11-07T08:40:46.642Z,15.17
2023-11-07T08:43:17.926Z,15.15
2023-11-07T08:45:50.186Z,15.15
2023-11-07T08:48:21.259Z,15.12
2023-11-07T08:50:53.704Z,15.20
2023-11-07T08:53:24.494Z,15.22
2023-11-07T08:55:54.988Z,15.24
2023-11-07T08:58:26.990Z,15.34
2023-11-07T09:01:00.146Z,15.45
2023-11-07T09:03:33.652Z,16.01
2023-11-07T09:06:05.098Z,16.31
2023-11-07T09:08:36.265Z,16.69
2023-11-07T09:11:08.312Z,16.95
2023-11-07T09:13:38.556Z,17.19
2023-11-07T09:16:11.288Z,17.44
2023-11-07T09:18:43.946Z,17.84
2023-11-07T09:21:13.634Z,18.19
2023-11-07T09:23:43.910Z,18.29
2023-11-07T09:26:13.993Z,18.42
2023-11-07T09:28:43.857Z,18.55
2023-11-07T09:31:14.964Z,18.70
2023-11-07T09:33:45.411Z,18.90
2023-11-07T09:36:17.051Z,19.29
2023-11-07T09:38:52.503Z,19.62
2023-11-07T09:41:23.648Z,19.70
2023-11-07T09:43:54.345Z,19.92
2023-11-07T09:46:26.116Z,20.44
2023-11-07T09:48:56.359Z,20.33
2023-11-07T09:51:29.760Z,20.65
2023-11-07T09:54:01.634Z,21.09
2023-11-07T09:56:35.989Z,21.12
2023-11-07T09:59:17.682Z,21.49
2023-11-07T10:01:51.602Z,21.73
2023-11-07T10:04:26.317Z,21.98
2023-11-07T10:06:56.954Z,22.19
2023-11-07T10:09:28.904Z,22.48
2023-11-07T10:12:01.728Z,22.84
2023-11-07T10:14:36.364Z,23.03
2023-11-07T10:17:06.828Z,23.37
2023-11-07T10:19:37.731Z,23.41
2023-11-07T10:22:08.973Z,23.61
2023-11-07T10:24:46.748Z,24.34
2023-11-07T10:27:18.612Z,24.64
2023-11-07T10:29:59.602Z,24.87
2023-11-07T10:32:47.620Z,25.12
2023-11-07T10:35:19.483Z,25.14
2023-11-07T10:37:51.017Z,25.08
2023-11-07T10:40:21.182Z,25.47
2023-11-07T10:42:52.217Z,25.28
2023-11-07T10:45:24.355Z,25.40
2023-11-07T10:47:54.718Z,25.94
2023-11-07T10:50:24.719Z,25.53
2023-11-07T10:52:54.537Z,25.46
2023-11-07T10:55:24.572Z,25.51
2023-11-07T10:58:01.723Z,25.32
2023-11-07T11:00:34.540Z,25.09
2023-11-07T11:03:07.933Z,25.15
2023-11-07T11:05:42.410Z,25.28
2023-11-07T11:08:15.366Z,25.53
2023-11-07T11:10:47.005Z,25.29
2023-11-07T11:13:18.804Z,25.08
2023-11-07T11:15:49.687Z,25.18
2023-11-07T11:18:30.482Z,25.15
2023-11-07T11:21:25.139Z,25.58
2023-11-07T11:24:16.192Z,25.59
2023-11-07T11:27:01.293Z,25.86
2023-11-07T11:29:32.698Z,25.97
2023-11-07T11:32:27.255Z,27.13
2023-11-07T11:35:25.820Z,28.04
2023-11-07T11:38:16.008Z,28.70
2023-11-07T11:41:02.624Z,27.68
2023-11-07T11:44:29.746Z,26.79
2023-11-07T11:47:03.503Z,26.73
2023-11-07T11:49:34.483Z,27.26
2023-11-07T11:52:09.582Z,27.98
2023-11-07T11:54:43.136Z,27.85
2023-11-07T11:57:13.476Z,27.72
2023-11-07T12:00:03.450Z,28.35
2023-11-07T12:02:44.813Z,27.84
2023-11-07T12:05:23.466Z,29.55
2023-11-07T12:07:54.216Z,30.48
2023-11-07T12:10:26.656Z,29.31
2023-11-07T12:13:00.337Z,28.97
2023-11-07T12:15:30.927Z,29.00
2023-11-07T12:18:04.703Z,29.07
2023-11-07T12:20:44.250Z,29.01
2023-11-07T12:23:17.977Z,30.68
2023-11-07T12:25:54.266Z,30.81
2023-11-07T12:28:24.910Z,31.49
2023-11-07T12:30:59.469Z,31.13
2023-11-07T12:33:41.718Z,29.61
2023-11-07T12:36:18.163Z,29.49
2023-11-07T12:38:48.724Z,29.35
2023-11-07T12:41:21.308Z,29.86
2023-11-07T12:43:54.586Z,30.02
2023-11-07T12:46:37.044Z,29.93
2023-11-07T12:49:30.411Z,30.40
2023-11-07T12:52:02.810Z,30.23
2023-11-07T12:54:35.441Z,30.17
2023-11-07T12:57:09.136Z,30.62
2023-11-07T12:59:39.273Z,30.51
2023-11-07T13:02:09.220Z,30.68
2023-11-07T13:04:39.525Z,31.16
2023-11-07T13:07:09.407Z,32.04
2023-11-07T13:09:39.776Z,32.00
2023-11-07T13:12:17.532Z,32.19
2023-11-07T13:14:51.915Z,32.58
2023-11-07T13:17:21.874Z,33.24
2023-11-07T13:19:53.076Z,34.12
2023-11-07T13:22:25.459Z,32.96
2023-11-07T13:24:57.185Z,33.08
2023-11-07T13:27:27.225Z,33.50
2023-11-07T13:29:57.421Z,33.14
2023-11-07T13:32:30.102Z,33.16
2023-11-07T13:35:03.502Z,32.96
2023-11-07T13:37:33.934Z,33.17
2023-11-07T13:40:09.163Z,32.65
2023-11-07T13:42:39.607Z,33.47
2023-11-07T13:45:12.014Z,34.33
2023-11-07T13:47:43.982Z,34.81
2023-11-07T13:50:14.850Z,35.39
2023-11-07T13:52:46.313Z,34.10
2023-11-07T13:55:16.609Z,34.22
2023-11-07T13:57:48.706Z,33.41
2023-11-07T14:00:19.585Z,34.31
2023-11-07T14:02:50.120Z,34.57
2023-11-07T14:05:21.066Z,33.86
2023-11-07T14:07:55.098Z,35.10
2023-11-07T14:10:25.520Z,34.52
2023-11-07T14:12:57.754Z,34.37
2023-11-07T14:15:37.847Z,33.92
2023-11-07T14:18:15.801Z,34.57
2023-11-07T14:21:03.681Z,35.92
2023-11-07T14:23:35.385Z,34.68
2023-11-07T14:26:08.789Z,36.10
2023-11-07T14:28:50.018Z,35.12
2023-11-07T14:31:26.109Z,34.61
2023-11-07T14:33:56.634Z,34.71
2023-11-07T14:36:27.773Z,35.51
2023-11-07T14:38:57.986Z,35.62
2023-11-07T14:41:29.538Z,35.76
2023-11-07T14:43:59.817Z,36.54
2023-11-07T14:46:32.842Z,36.13
2023-11-07T14:49:02.943Z,36.71
2023-11-07T14:52:25.555Z,38.07
2023-11-07T14:54:56.820Z,36.67
2023-11-07T14:59:43.314Z,36.91
2023-11-07T15:00:43.593Z,38.34
2023-11-07T15:03:14.136Z,38.00
2023-11-07T15:05:45.483Z,38.74
2023-11-07T15:08:17.192Z,38.58
2023-11-07T15:10:48.727Z,38.44
2023-11-07T15:13:19.333Z,37.67
2023-11-07T15:15:49.637Z,36.78
2023-11-07T15:18:25.642Z,36.00
2023-11-07T15:20:57.348Z,36.15
2023-11-07T15:23:27.504Z,36.39
2023-11-07T15:25:57.778Z,37.42
2023-11-07T15:28:27.830Z,38.56
2023-11-07T15:30:57.707Z,38.92
2023-11-07T15:33:27.716Z,39.64
2023-11-07T15:35:58.701Z,38.07
2023-11-07T15:38:28.556Z,37.87
2023-11-07T15:40:59.482Z,37.32
2023-11-07T15:43:29.950Z,36.95
2023-11-07T15:46:02.765Z,36.48
2023-11-07T15:48:35.098Z,36.30
2023-11-07T15:51:05.865Z,37.09
2023-11-07T15:53:36.308Z,37.97
2023-11-07T15:56:07.353Z,37.73
2023-11-07T15:58:38.460Z,38.59
2023-11-07T16:01:09.070Z,37.96
2023-11-07T16:03:39.203Z,37.88
2023-11-07T16:06:09.885Z,38.75
2023-11-07T16:08:40.620Z,39.34
2023-11-07T16:11:10.830Z,38.68
2023-11-07T16:13:42.374Z,39.20
2023-11-07T16:16:18.546Z,39.58
2023-11-07T16:18:51.006Z,39.40
2023-11-07T16:21:21.935Z,38.91
2023-11-07T16:23:52.646Z,38.80
2023-11-07T16:26:23.390Z,38.85
2023-11-07T16:28:54.364Z,37.87
2023-11-07T16:31:31.613Z,38.08
2023-11-07T16:34:03.143Z,38.47
2023-11-07T16:36:33.515Z,38.45
2023-11-07T16:39:28.771Z,38.80
2023-11-07T16:42:28.047Z,38.37
2023-11-07T16:45:21.866Z,39.10
2023-11-07T16:48:19.586Z,40.08
2023-11-07T16:50:54.358Z,39.51
2023-11-07T16:53:39.108Z,38.61
2023-11-07T17:14:59.593Z,38.98
2023-11-07T17:17:31.806Z,38.48
2023-11-07T17:20:02.455Z,38.64
2023-11-07T17:23:22.642Z,38.92
2023-11-07T17:25:57.193Z,37.83
2023-11-07T17:28:42.820Z,37.90
2023-11-07T17:31:29.406Z,38.74
2023-11-07T17:34:24.090Z,38.96
2023-11-07T17:36:54.612Z,37.98
2023-11-07T17:39:26.207Z,38.52
2023-11-07T17:41:56.389Z,38.24
2023-11-07T17:44:52.506Z,38.41
2023-11-07T18:09:15.135Z,36.96
2023-11-07T18:11:47.384Z,37.60
2023-11-07T18:14:19.053Z,38.01
2023-11-07T18:17:01.044Z,37.70
2023-11-07T18:23:44.763Z,37.43
2023-11-07T18:26:27.205Z,37.70
2023-11-07T18:33:25.579Z,37.45
2023-11-07T18:35:56.688Z,37.57
2023-11-07T18:38:30.359Z,37.25
2023-11-07T18:41:00.542Z,36.94
2023-11-07T18:43:30.764Z,37.00
2023-11-07T18:46:56.095Z,37.40
2023-11-07T18:52:45.649Z,36.79
2023-11-07T20:12:44.251Z,33.67
2023-11-07T20:15:15.565Z,33.61
2023-11-07T20:18:04.035Z,33.64
2023-11-07T20:20:35.166Z,33.48
2023-11-07T20:23:05.958Z,33.30
2023-11-07T20:25:36.668Z,33.21
2023-11-07T20:28:06.951Z,33.16
2023-11-07T20:30:39.872Z,33.06
2023-11-07T20:33:10.395Z,32.99
2023-11-07T20:35:42.319Z,32.87
2023-11-07T20:38:13.894Z,32.75
2023-11-07T20:40:44.148Z,32.60
2023-11-07T20:43:14.271Z,32.56
2023-11-07T20:45:44.923Z,32.46
2023-11-07T20:48:15.436Z,32.24
2023-11-07T20:50:45.654Z,32.02
2023-11-07T20:53:15.478Z,31.88
2023-11-07T20:55:45.346Z,31.56
2023-11-07T20:58:15.181Z,31.37
2023-11-07T21:00:45.361Z,31.09
2023-11-07T21:03:15.377Z,30.65
2023-11-07T21:05:46.426Z,30.24
2023-11-07T21:08:16.715Z,29.97
2023-11-07T21:10:47.254Z,29.72
2023-11-07T21:13:17.540Z,29.46
2023-11-07T21:15:48.352Z,29.26
2023-11-07T21:18:18.651Z,28.98
2023-11-07T21:20:48.530Z,28.64
2023-11-07T21:23:19.015Z,28.52
2023-11-07T21:25:49.391Z,28.22
2023-11-07T21:28:19.596Z,28.08
2023-11-07T21:30:49.686Z,27.80
2023-11-07T21:33:19.796Z,27.74
2023-11-07T21:35:50.577Z,27.51
2023-11-07T21:38:20.982Z,27.31
2023-11-07T21:40:52.633Z,27.16
2023-11-07T21:43:22.976Z,26.82
2023-11-07T21:45:54.370Z,26.48
2023-11-07T21:48:26.819Z,26.16
2023-11-07T21:50:58.912Z,26.11
2023-11-07T21:53:29.730Z,25.84
2023-11-07T21:55:59.951Z,25.76
2023-11-07T21:58:29.767Z,25.46
2023-11-07T22:00:59.571Z,25.59
2023-11-07T22:03:29.905Z,25.36
2023-11-07T22:06:00.901Z,24.99
2023-11-07T22:08:32.411Z,24.80
2023-11-07T22:11:04.030Z,24.72
2023-11-07T22:13:34.424Z,24.51
2023-11-07T22:16:04.884Z,24.53
2023-11-07T22:18:35.518Z,24.44
2023-11-07T22:21:06.018Z,24.26
2023-11-07T22:23:36.701Z,24.00
2023-11-07T22:26:06.802Z,23.93
2023-11-07T22:29:05.878Z,23.89
2023-11-07T22:31:52.400Z,23.71
2023-11-07T22:34:22.711Z,23.55
2023-11-07T22:36:52.984Z,23.34
2023-11-07T22:39:23.044Z,23.27
2023-11-07T22:41:56.578Z,23.21
2023-11-07T22:44:27.397Z,23.04
2023-11-07T22:46:57.234Z,22.94
2023-11-07T22:49:28.571Z,22.94
2023-11-07T22:51:58.717Z,22.90
2023-11-07T22:54:28.869Z,22.82
2023-11-07T22:56:58.955Z,22.73
2023-11-07T22:59:28.809Z,22.66
2023-11-07T23:01:58.663Z,22.57
2023-11-07T23:04:28.902Z,22.42
2023-11-07T23:06:58.939Z,22.28
2023-11-07T23:09:29.080Z,22.16
2023-11-07T23:12:00.665Z,22.15
2023-11-07T23:14:34.170Z,22.04
2023-11-07T23:17:05.603Z,21.84
2023-11-07T23:19:35.825Z,21.65
2023-11-07T23:22:05.872Z,21.56
2023-11-07T23:24:36.345Z,21.65
2023-11-07T23:28:21.747Z,21.68
2023-11-07T23:35:12.124Z,21.53
2023-11-07T23:38:06.196Z,21.43
2023-11-07T23:40:36.696Z,21.33
2023-11-07T23:43:06.679Z,21.23
2023-11-07T23:46:40.887Z,21.25
2023-11-07T23:53:24.547Z,21.06
2023-11-07T23:55:55.219Z,20.99
